Time;durP1;ratioP1;P1;durP2;ratioP2;P2;SDS_P1;SDS_P2;PMS_P1;PMS_P2;Temp;Humidity;BMP_temperature;BMP_pressure;BME280_temperature;BME280_humidity;BME280_pressure;Samples;Min_cycle;Max_cycle;Signal;HPM_P1;HPM_P2
2022/12/27 00:01:11;;;;;;;;;;;3.80;99.60;;;;;;5013343;28;20265;-83
2022/12/27 00:03:36;;;;;;;;;;;3.80;99.70;;;;;;5011909;28;20349;-83
2022/12/27 00:06:05;;;;;;;;;;;3.80;99.80;;;;;;5028609;28;19916;-83
2022/12/27 00:08:30;;;;;;;;;;;3.80;99.90;;;;;;5013054;28;19936;-83
2022/12/27 00:10:56;;;;;;;;;;;3.80;99.90;;;;;;4995576;28;20346;-83
2022/12/27 00:13:22;;;;;;;;;;;3.90;99.90;;;;;;5012305;28;19912;-82
2022/12/27 00:15:48;;;;;;;;;;;3.80;99.90;;;;;;5028450;28;19913;-83
2022/12/27 00:18:13;;;;;;;;;;;3.70;99.90;;;;;;5012226;28;20286;-83
2022/12/27 00:20:39;;;;;;;;;;;3.70;99.90;;;;;;4995066;28;19963;-83
2022/12/27 00:23:05;;;;;;;;;;;3.80;99.90;;;;;;4995586;28;19916;-82
2022/12/27 00:25:31;;;;;;;;;;;3.80;99.90;;;;;;5028434;28;19906;-84
2022/12/27 00:27:56;;;;;;;;;;;3.70;99.90;;;;;;5012042;28;20317;-83
2022/12/27 00:30:22;;;;;;;;;;;3.70;99.90;;;;;;5031964;28;19916;-83
2022/12/27 00:32:47;;;;;;;;;;;3.80;99.90;;;;;;5015416;28;20258;-83
2022/12/27 00:35:13;;;;;;;;;;;3.80;99.90;;;;;;5015755;28;19952;-83
2022/12/27 00:37:38;;;;;;;;;;;3.70;99.90;;;;;;5015059;28;20293;-83
2022/12/27 00:40:04;;;;;;;;;;;3.70;99.90;;;;;;5015128;28;19909;-83
2022/12/27 00:42:31;;;;;;;;;;;3.70;99.90;;;;;;4999088;28;19948;-83
2022/12/27 00:44:56;;;;;;;;;;;3.70;99.90;;;;;;4998645;28;19921;-83
2022/12/27 00:47:22;;;;;;;;;;;3.70;99.90;;;;;;5014941;28;19976;-84
2022/12/27 00:49:47;;;;;;;;;;;3.70;99.90;;;;;;4998312;28;19909;-82
2022/12/27 00:52:13;;;;;;;;;;;3.70;99.90;;;;;;5015063;28;19906;-83
2022/12/27 00:54:38;;;;;;;;;;;3.80;99.90;;;;;;5014795;28;20301;-83
2022/12/27 00:57:04;;;;;;;;;;;3.70;99.90;;;;;;5015018;28;20213;-83
2022/12/27 00:59:29;;;;;;;;;;;3.80;99.90;;;;;;5016163;28;19910;-82
2022/12/27 01:01:55;;;;;;;;;;;3.70;99.90;;;;;;5016361;28;19909;-83
2022/12/27 01:04:20;;;;;;;;;;;3.80;99.90;;;;;;5014432;28;20282;-83
2022/12/27 01:06:46;;;;;;;;;;;3.60;99.90;;;;;;4998180;28;20349;-82
2022/12/27 01:09:11;;;;;;;;;;;3.70;99.90;;;;;;4998637;28;19913;-83
2022/12/27 01:11:38;;;;;;;;;;;3.70;99.90;;;;;;5015827;28;19992;-83
2022/12/27 01:14:04;;;;;;;;;;;3.80;99.90;;;;;;5015439;28;19988;-83
2022/12/27 01:16:30;;;;;;;;;;;3.80;99.90;;;;;;5015772;28;19995;-82
2022/12/27 01:18:56;;;;;;;;;;;3.80;99.90;;;;;;5015940;28;19960;-83
2022/12/27 01:21:23;;;;;;;;;;;3.80;99.90;;;;;;5015118;28;19905;-83
2022/12/27 01:23:49;;;;;;;;;;;3.70;99.90;;;;;;5014614;28;19905;-83
2022/12/27 01:26:16;;;;;;;;;;;3.80;99.90;;;;;;5015058;28;20385;-83
2022/12/27 01:28:42;;;;;;;;;;;3.70;99.90;;;;;;5015661;28;19968;-83
2022/12/27 01:31:09;;;;;;;;;;;3.80;99.90;;;;;;4997988;28;19909;-83
2022/12/27 01:33:34;;;;;;;;;;;3.80;99.90;;;;;;5014157;28;20353;-84
2022/12/27 01:36:17;;;;;;;;;;;3.80;99.90;;;;;;5013915;28;19997;-83
2022/12/27 01:38:42;;;;;;;;;;;3.70;99.90;;;;;;5014090;28;19906;-83
2022/12/27 01:44:00;;;;;;;;;;;3.80;99.90;;;;;;5015925;28;20007;-83
2022/12/27 01:46:26;;;;;;;;;;;3.80;99.90;;;;;;5015166;28;19909;-83
2022/12/27 01:48:51;;;;;;;;;;;3.90;99.90;;;;;;5015181;28;19949;-83
2022/12/27 01:51:17;;;;;;;;;;;3.80;99.90;;;;;;5015041;28;20384;-83
2022/12/27 01:53:44;;;;;;;;;;;3.80;99.90;;;;;;5013798;28;20020;-83
2022/12/27 01:56:13;;;;;;;;;;;3.80;99.90;;;;;;5015417;28;19941;-83
2022/12/27 01:58:38;;;;;;;;;;;3.80;99.90;;;;;;5015032;28;19906;-84
2022/12/27 02:01:06;;;;;;;;;;;3.70;99.90;;;;;;5013776;28;19995;-83
2022/12/27 02:03:34;;;;;;;;;;;3.80;99.90;;;;;;5013553;28;19905;-83
2022/12/27 02:06:00;;;;;;;;;;;3.80;99.90;;;;;;5015113;28;19964;-83
2022/12/27 02:08:25;;;;;;;;;;;3.80;99.90;;;;;;4997060;28;19924;-83
2022/12/27 02:10:51;;;;;;;;;;;3.80;99.90;;;;;;5014929;28;19909;-83
2022/12/27 02:13:17;;;;;;;;;;;3.80;99.90;;;;;;5014567;28;19909;-82
2022/12/27 02:15:43;;;;;;;;;;;3.80;99.90;;;;;;5013598;28;20019;-83
2022/12/27 02:18:08;;;;;;;;;;;4.00;99.90;;;;;;5013699;28;19963;-83
2022/12/27 02:20:40;;;;;;;;;;;3.90;99.90;;;;;;4996845;28;19916;-83
2022/12/27 02:25:59;;;;;;;;;;;4.10;99.90;;;;;;5015193;28;20313;-82
2022/12/27 02:28:43;;;;;;;;;;;4.10;99.90;;;;;;5014459;28;20009;-83
2022/12/27 02:31:21;;;;;;;;;;;4.20;99.90;;;;;;5013069;28;19956;-83
2022/12/27 02:33:48;;;;;;;;;;;4.20;99.90;;;;;;5013176;28;20012;-84
2022/12/27 02:36:16;;;;;;;;;;;4.20;99.90;;;;;;5014520;28;19910;-82
2022/12/27 02:38:46;;;;;;;;;;;4.30;99.90;;;;;;5012853;28;19913;-83
2022/12/27 02:55:26;;;;;;;;;;;4.40;99.90;;;;;;5014646;28;19959;-82
2022/12/27 02:57:52;;;;;;;;;;;4.40;99.90;;;;;;5012739;28;19987;-82
2022/12/27 03:03:22;;;;;;;;;;;4.30;99.90;;;;;;5014593;28;20291;-82
2022/12/27 03:06:38;;;;;;;;;;;4.30;99.90;;;;;;5012394;28;19924;-82
2022/12/27 03:08:40;;;;;;;;;;;4.40;99.90;;;;;;5013706;28;19913;-83
2022/12/27 03:15:53;;;;;;;;;;;4.30;99.90;;;;;;5014495;28;19920;-83
2022/12/27 03:17:04;;;;;;;;;;;4.30;99.90;;;;;;5014047;28;19992;-83
2022/12/27 03:33:24;;;;;;;;;;;4.30;99.90;;;;;;5014256;28;20372;-82
2022/12/27 03:38:57;;;;;;;;;;;4.40;99.90;;;;;;5014215;28;19912;-82
2022/12/27 03:44:25;;;;;;;;;;;4.40;99.90;;;;;;5013788;28;20277;-83
2022/12/27 03:46:57;;;;;;;;;;;4.50;99.90;;;;;;5013170;28;19909;-83
2022/12/27 03:49:48;;;;;;;;;;;4.50;99.90;;;;;;5012122;28;19906;-82
2022/12/27 03:52:14;;;;;;;;;;;4.50;99.90;;;;;;5010565;28;19952;-82
2022/12/27 03:54:41;;;;;;;;;;;4.40;99.90;;;;;;5013328;28;19905;-83
2022/12/27 03:57:09;;;;;;;;;;;4.40;99.90;;;;;;5012180;28;19940;-82
2022/12/27 03:59:34;;;;;;;;;;;4.40;99.90;;;;;;5012407;28;19906;-83
2022/12/27 04:02:00;;;;;;;;;;;4.40;99.90;;;;;;5012746;28;19963;-82
2022/12/27 04:04:25;;;;;;;;;;;4.40;99.90;;;;;;5016247;28;20246;-83
2022/12/27 04:06:51;;;;;;;;;;;4.40;99.90;;;;;;5016195;28;19974;-81
2022/12/27 04:36:39;;;;;;;;;;;4.20;99.90;;;;;;5018018;28;20476;-82
2022/12/27 04:39:04;;;;;;;;;;;4.20;99.90;;;;;;5031351;28;19950;-81
2022/12/27 04:55:15;;;;;;;;;;;4.00;99.90;;;;;;5017134;28;19920;-82
2022/12/27 04:57:40;;;;;;;;;;;4.00;99.90;;;;;;5013470;28;19905;-82
2022/12/27 05:02:50;;;;;;;;;;;4.00;99.90;;;;;;5014967;28;20019;-82
2022/12/27 05:05:16;;;;;;;;;;;4.00;99.90;;;;;;5014979;28;19941;-82
2022/12/27 05:15:54;;;;;;;;;;;3.90;99.90;;;;;;5015037;28;19940;-82
2022/12/27 05:18:20;;;;;;;;;;;3.90;99.90;;;;;;5014410;28;19909;-82
2022/12/27 05:20:45;;;;;;;;;;;3.90;99.90;;;;;;5014928;28;19936;-82
2022/12/27 05:25:55;;;;;;;;;;;4.00;99.90;;;;;;5017681;28;19912;-83
2022/12/27 05:28:20;;;;;;;;;;;4.00;99.90;;;;;;5015125;28;20447;-82
2022/12/27 05:30:46;;;;;;;;;;;4.00;99.90;;;;;;5014049;28;20007;-82
2022/12/27 05:33:12;;;;;;;;;;;4.00;99.90;;;;;;5014313;28;19983;-82
2022/12/27 05:35:37;;;;;;;;;;;4.00;99.90;;;;;;5014191;28;19905;-81
2022/12/27 05:38:03;;;;;;;;;;;4.00;99.90;;;;;;5015353;28;20365;-82
2022/12/27 05:40:28;;;;;;;;;;;4.00;99.90;;;;;;5015148;28;19905;-82
2022/12/27 05:42:56;;;;;;;;;;;4.00;99.90;;;;;;5030564;28;19909;-82
2022/12/27 05:45:22;;;;;;;;;;;4.00;99.90;;;;;;5013730;28;20285;-82
2022/12/27 05:47:47;;;;;;;;;;;4.00;99.90;;;;;;5013911;28;19913;-82
2022/12/27 05:50:13;;;;;;;;;;;4.00;99.90;;;;;;4996723;28;19913;-82
2022/12/27 05:52:38;;;;;;;;;;;4.00;99.90;;;;;;5015108;28;19909;-82
2022/12/27 05:55:04;;;;;;;;;;;4.00;99.90;;;;;;5030415;28;19909;-82
2022/12/27 05:57:29;;;;;;;;;;;4.00;99.90;;;;;;5013751;28;19952;-82
2022/12/27 05:59:56;;;;;;;;;;;4.10;99.90;;;;;;5014014;28;19910;-82
2022/12/27 06:02:22;;;;;;;;;;;4.00;99.90;;;;;;5013378;28;19915;-81
2022/12/27 06:04:47;;;;;;;;;;;4.00;99.90;;;;;;4997312;28;20011;-81
2022/12/27 06:07:13;;;;;;;;;;;3.90;99.90;;;;;;5014394;28;19917;-82
2022/12/27 06:09:39;;;;;;;;;;;4.00;99.90;;;;;;5014801;28;20013;-82
2022/12/27 06:12:04;;;;;;;;;;;4.00;99.90;;;;;;5014550;28;19905;-82
2022/12/27 06:14:30;;;;;;;;;;;3.90;99.90;;;;;;4997151;28;19917;-81
2022/12/27 06:16:55;;;;;;;;;;;4.10;99.90;;;;;;5029907;28;19935;-82
2022/12/27 06:19:21;;;;;;;;;;;3.90;99.90;;;;;;5014744;28;19905;-82
2022/12/27 06:21:47;;;;;;;;;;;4.00;99.90;;;;;;5013102;28;19909;-82
2022/12/27 06:24:13;;;;;;;;;;;3.90;99.90;;;;;;5014788;28;19906;-82
2022/12/27 06:26:38;;;;;;;;;;;3.90;99.90;;;;;;5013233;28;20288;-82
2022/12/27 06:29:04;;;;;;;;;;;3.90;99.90;;;;;;5012865;28;20012;-82
2022/12/27 06:31:30;;;;;;;;;;;3.90;99.90;;;;;;5014755;28;19987;-82
2022/12/27 06:33:56;;;;;;;;;;;3.90;99.90;;;;;;5014254;28;20376;-82
2022/12/27 06:36:22;;;;;;;;;;;3.90;99.90;;;;;;5012913;28;19906;-83
2022/12/27 06:38:48;;;;;;;;;;;3.90;99.90;;;;;;5013986;28;19905;-83
2022/12/27 06:41:18;;;;;;;;;;;3.90;99.90;;;;;;5014336;28;20357;-83
2022/12/27 06:43:44;;;;;;;;;;;3.90;99.90;;;;;;5012971;28;19929;-83
2022/12/27 06:46:11;;;;;;;;;;;3.90;99.90;;;;;;5014080;28;19960;-83
2022/12/27 06:48:36;;;;;;;;;;;3.90;99.90;;;;;;5014062;28;19943;-83
2022/12/27 06:51:02;;;;;;;;;;;3.90;99.90;;;;;;5012793;28;19909;-83
2022/12/27 06:53:28;;;;;;;;;;;3.90;99.90;;;;;;5013958;28;19910;-83
2022/12/27 06:55:53;;;;;;;;;;;3.90;99.90;;;;;;5012590;28;19952;-83
2022/12/27 06:58:19;;;;;;;;;;;3.90;99.90;;;;;;5012581;28;20008;-83
2022/12/27 07:00:44;;;;;;;;;;;3.90;99.90;;;;;;5013937;28;19912;-82
2022/12/27 07:03:10;;;;;;;;;;;3.90;99.90;;;;;;4996000;28;19909;-82
2022/12/27 07:05:36;;;;;;;;;;;3.90;99.90;;;;;;5013034;28;19909;-83
2022/12/27 07:08:01;;;;;;;;;;;4.00;99.90;;;;;;5012375;28;19924;-83
2022/12/27 07:10:27;;;;;;;;;;;3.90;99.90;;;;;;5014085;28;19988;-82
2022/12/27 07:12:52;;;;;;;;;;;3.90;99.90;;;;;;5012470;28;19959;-83
2022/12/27 07:15:18;;;;;;;;;;;3.80;99.90;;;;;;5012740;28;19949;-83
2022/12/27 07:17:43;;;;;;;;;;;3.80;99.90;;;;;;5012239;28;19914;-82
2022/12/27 07:20:09;;;;;;;;;;;3.90;99.90;;;;;;5029087;28;19909;-83
2022/12/27 07:22:35;;;;;;;;;;;3.80;99.90;;;;;;4995880;28;19909;-83
2022/12/27 07:25:00;;;;;;;;;;;3.80;99.90;;;;;;5012388;28;19911;-83
2022/12/27 07:27:26;;;;;;;;;;;3.80;99.90;;;;;;5012238;28;19918;-83
2022/12/27 07:29:51;;;;;;;;;;;3.80;99.90;;;;;;5013599;28;19913;-83
2022/12/27 07:32:17;;;;;;;;;;;3.80;99.90;;;;;;5013516;28;19913;-85
2022/12/27 07:34:42;;;;;;;;;;;3.80;99.90;;;;;;5012674;28;19913;-83
2022/12/27 07:37:08;;;;;;;;;;;3.70;99.90;;;;;;5012708;28;19999;-83
2022/12/27 07:39:34;;;;;;;;;;;3.80;99.90;;;;;;5016473;28;19906;-83
2022/12/27 07:41:59;;;;;;;;;;;3.70;99.90;;;;;;5017648;28;20000;-83
2022/12/27 07:44:25;;;;;;;;;;;3.80;99.90;;;;;;5017534;28;20284;-82
2022/12/27 07:46:51;;;;;;;;;;;3.70;99.90;;;;;;5017723;28;19906;-83
2022/12/27 07:49:16;;;;;;;;;;;3.80;99.90;;;;;;5017379;28;20419;-84
2022/12/27 07:51:42;;;;;;;;;;;3.70;99.90;;;;;;5017408;28;19909;-83
2022/12/27 07:54:07;;;;;;;;;;;3.80;99.90;;;;;;5016341;28;19910;-84
2022/12/27 07:56:33;;;;;;;;;;;3.80;99.90;;;;;;5016013;28;19917;-83
2022/12/27 07:58:59;;;;;;;;;;;3.80;99.90;;;;;;5015782;28;19912;-83
2022/12/27 08:01:27;;;;;;;;;;;3.90;99.90;;;;;;5017424;28;19906;-84
2022/12/27 08:03:52;;;;;;;;;;;3.80;99.90;;;;;;5017032;28;19958;-84
2022/12/27 08:06:29;;;;;;;;;;;3.80;99.90;;;;;;5018128;28;19996;-84
2022/12/27 08:08:56;;;;;;;;;;;3.90;99.90;;;;;;5016389;28;19935;-84
2022/12/27 08:11:22;;;;;;;;;;;3.90;99.90;;;;;;5032325;28;19912;-84
2022/12/27 08:13:47;;;;;;;;;;;4.00;99.90;;;;;;5015402;28;19905;-84
2022/12/27 08:16:21;;;;;;;;;;;3.90;99.90;;;;;;5016096;28;19909;-82
2022/12/27 08:18:47;;;;;;;;;;;3.90;99.90;;;;;;5016459;28;20310;-83
2022/12/27 08:21:13;;;;;;;;;;;4.00;99.90;;;;;;5016394;28;19991;-83
2022/12/27 08:23:38;;;;;;;;;;;4.00;99.90;;;;;;5015082;28;19952;-82
2022/12/27 08:26:05;;;;;;;;;;;3.90;99.90;;;;;;5016693;28;19913;-83
2022/12/27 08:28:30;;;;;;;;;;;4.00;99.90;;;;;;5016781;28;20017;-83
2022/12/27 08:30:56;;;;;;;;;;;4.00;99.90;;;;;;5015216;28;20345;-82
2022/12/27 08:33:22;;;;;;;;;;;4.00;99.90;;;;;;5031985;28;19912;-82
2022/12/27 08:35:47;;;;;;;;;;;4.10;99.90;;;;;;5015267;28;19912;-82
2022/12/27 08:38:13;;;;;;;;;;;4.00;99.90;;;;;;4999095;28;20003;-83
2022/12/27 08:40:39;;;;;;;;;;;4.10;99.90;;;;;;5014845;28;19913;-83
2022/12/27 08:43:05;;;;;;;;;;;4.10;99.90;;;;;;5015066;28;19909;-82
2022/12/27 08:45:31;;;;;;;;;;;4.10;99.90;;;;;;4998376;28;20016;-82
2022/12/27 08:48:00;;;;;;;;;;;4.10;99.90;;;;;;4998644;28;19940;-82
2022/12/27 08:50:26;;;;;;;;;;;4.10;99.90;;;;;;5015520;28;19955;-82
2022/12/27 08:52:55;;;;;;;;;;;4.10;99.90;;;;;;5014915;28;19906;-82
2022/12/27 08:55:20;;;;;;;;;;;4.20;99.90;;;;;;5015353;28;19914;-82
2022/12/27 08:57:45;;;;;;;;;;;4.20;99.90;;;;;;4998273;28;19909;-82
2022/12/27 09:00:11;;;;;;;;;;;4.30;99.90;;;;;;5031773;28;19913;-83
2022/12/27 09:02:37;;;;;;;;;;;4.30;99.90;;;;;;5015776;28;19909;-84
2022/12/27 09:05:02;;;;;;;;;;;4.30;99.90;;;;;;5016223;28;19913;-83
2022/12/27 09:07:28;;;;;;;;;;;4.40;99.90;;;;;;4998360;28;19983;-83
2022/12/27 09:09:53;;;;;;;;;;;4.40;99.90;;;;;;4998302;28;20284;-83
2022/12/27 09:12:19;;;;;;;;;;;4.40;99.90;;;;;;5015587;28;20349;-83
2022/12/27 09:14:44;;;;;;;;;;;4.50;99.90;;;;;;4998504;28;19916;-82
2022/12/27 09:17:10;;;;;;;;;;;4.40;99.90;;;;;;5014762;28;19905;-83
2022/12/27 09:19:35;;;;;;;;;;;4.50;99.90;;;;;;5014366;28;19948;-83
2022/12/27 09:22:01;;;;;;;;;;;4.60;99.90;;;;;;5014215;28;19957;-82
2022/12/27 09:24:26;;;;;;;;;;;4.60;99.90;;;;;;5030809;28;20280;-83
2022/12/27 09:26:52;;;;;;;;;;;4.70;99.90;;;;;;4997878;28;20348;-83
2022/12/27 09:29:17;;;;;;;;;;;4.80;99.90;;;;;;5014487;28;19913;-83
2022/12/27 09:31:43;;;;;;;;;;;4.90;99.90;;;;;;5031175;28;19913;-83
2022/12/27 09:34:09;;;;;;;;;;;5.00;99.90;;;;;;5015291;28;20001;-83
2022/12/27 09:36:37;;;;;;;;;;;5.10;99.90;;;;;;5015547;28;19921;-83
2022/12/27 09:39:02;;;;;;;;;;;5.30;99.90;;;;;;5015084;28;20411;-83
2022/12/27 09:41:34;;;;;;;;;;;5.50;99.90;;;;;;5015132;28;19905;-83
2022/12/27 09:44:02;;;;;;;;;;;5.60;99.90;;;;;;5015231;28;19924;-84
2022/12/27 09:46:31;;;;;;;;;;;5.80;99.90;;;;;;5013548;28;20412;-83
2022/12/27 09:48:57;;;;;;;;;;;6.00;99.90;;;;;;5014821;28;19913;-83
2022/12/27 09:51:25;;;;;;;;;;;6.20;99.90;;;;;;5013597;28;19913;-83
2022/12/27 09:54:03;;;;;;;;;;;6.40;99.90;;;;;;5014320;28;19905;-83
2022/12/27 09:56:31;;;;;;;;;;;6.80;99.90;;;;;;5014066;28;19950;-83
2022/12/27 09:59:15;;;;;;;;;;;7.00;99.90;;;;;;5013632;28;19943;-84
2022/12/27 10:01:43;;;;;;;;;;;7.20;99.90;;;;;;5013203;28;20314;-84
2022/12/27 10:04:13;;;;;;;;;;;7.40;99.90;;;;;;5013893;28;19955;-84
2022/12/27 10:06:47;;;;;;;;;;;7.70;99.90;;;;;;5014997;28;19909;-84
2022/12/27 10:09:32;;;;;;;;;;;7.90;99.90;;;;;;5013218;28;19961;-84
2022/12/27 10:11:57;;;;;;;;;;;8.20;99.90;;;;;;5014418;28;19916;-84
2022/12/27 10:14:35;;;;;;;;;;;8.20;99.90;;;;;;5014631;28;19952;-83
2022/12/27 10:17:04;;;;;;;;;;;8.10;99.90;;;;;;5013484;28;19905;-83
2022/12/27 10:19:44;;;;;;;;;;;7.90;99.90;;;;;;5013590;28;20317;-84
2022/12/27 10:22:18;;;;;;;;;;;7.80;99.90;;;;;;5012712;28;20424;-84
2022/12/27 10:24:52;;;;;;;;;;;7.70;99.90;;;;;;5013892;28;19905;-84
2022/12/27 10:27:22;;;;;;;;;;;7.60;99.90;;;;;;5013069;28;19952;-84
2022/12/27 10:29:50;;;;;;;;;;;7.50;99.90;;;;;;5014846;28;20325;-84
2022/12/27 10:32:16;;;;;;;;;;;7.50;99.90;;;;;;5013463;28;20334;-85
2022/12/27 10:34:41;;;;;;;;;;;7.60;99.90;;;;;;5013497;28;19955;-84
2022/12/27 10:37:12;;;;;;;;;;;7.80;99.90;;;;;;5029889;28;19911;-85
2022/12/27 10:39:38;;;;;;;;;;;8.20;99.90;;;;;;5012845;28;19912;-83
2022/12/27 10:42:09;;;;;;;;;;;8.30;99.90;;;;;;5014804;28;19909;-84
2022/12/27 10:44:35;;;;;;;;;;;8.40;99.90;;;;;;5014140;28;19917;-84
2022/12/27 10:47:00;;;;;;;;;;;8.40;99.90;;;;;;4996917;28;19932;-84
2022/12/27 10:49:30;;;;;;;;;;;8.30;99.90;;;;;;5014211;28;19920;-84
2022/12/27 10:51:57;;;;;;;;;;;8.40;99.90;;;;;;5012631;28;19927;-84
2022/12/27 10:54:27;;;;;;;;;;;8.50;99.90;;;;;;5014163;28;20412;-84
2022/12/27 10:56:53;;;;;;;;;;;8.80;99.90;;;;;;5012927;28;20346;-84
2022/12/27 10:59:23;;;;;;;;;;;9.30;99.90;;;;;;5015446;28;19952;-84
2022/12/27 11:02:06;;;;;;;;;;;9.60;99.90;;;;;;5012764;28;19913;-84
2022/12/27 11:04:32;;;;;;;;;;;10.00;99.90;;;;;;5012579;28;19959;-84
2022/12/27 11:07:00;;;;;;;;;;;10.40;99.90;;;;;;5014444;28;19913;-85
2022/12/27 11:09:28;;;;;;;;;;;10.60;99.90;;;;;;5012611;28;19968;-84
2022/12/27 11:12:13;;;;;;;;;;;10.70;98.00;;;;;;5012766;28;19910;-84
2022/12/27 11:14:42;;;;;;;;;;;10.60;96.70;;;;;;5012582;28;20354;-84
2022/12/27 11:17:12;;;;;;;;;;;10.50;94.90;;;;;;5013654;28;20001;-84
2022/12/27 11:19:44;;;;;;;;;;;10.20;93.50;;;;;;5013404;28;19905;-85
2022/12/27 11:22:09;;;;;;;;;;;10.10;94.60;;;;;;5028588;28;19905;-84
2022/12/27 11:24:35;;;;;;;;;;;10.20;95.00;;;;;;5012764;28;20387;-84
2022/12/27 11:27:01;;;;;;;;;;;10.40;95.10;;;;;;5012658;28;19905;-84
2022/12/27 11:29:29;;;;;;;;;;;10.50;95.30;;;;;;5013825;28;19944;-84
2022/12/27 11:31:55;;;;;;;;;;;10.70;95.40;;;;;;5028968;28;19964;-84
2022/12/27 11:34:31;;;;;;;;;;;10.90;95.00;;;;;;5012187;28;19909;-84
2022/12/27 11:37:13;;;;;;;;;;;11.00;93.80;;;;;;5013560;28;20269;-84
2022/12/27 11:39:50;;;;;;;;;;;10.90;92.30;;;;;;5012668;28;19952;-83
2022/12/27 11:42:16;;;;;;;;;;;10.80;92.00;;;;;;5013657;28;19905;-84
2022/12/27 11:44:44;;;;;;;;;;;10.70;91.20;;;;;;5029806;28;19971;-84
2022/12/27 11:47:09;;;;;;;;;;;10.70;91.70;;;;;;5048422;28;19952;-84
2022/12/27 11:49:36;;;;;;;;;;;10.70;91.60;;;;;;5033350;28;19998;-84
2022/12/27 11:52:12;;;;;;;;;;;10.80;91.70;;;;;;5033366;28;19905;-84
2022/12/27 11:54:49;;;;;;;;;;;11.00;92.10;;;;;;5031671;28;19905;-84
2022/12/27 11:57:22;;;;;;;;;;;11.30;92.10;;;;;;5033761;28;20000;-84
2022/12/27 12:00:06;;;;;;;;;;;11.70;92.40;;;;;;5034365;28;19909;-84
2022/12/27 12:02:42;;;;;;;;;;;12.00;91.70;;;;;;5048288;28;20357;-84
2022/12/27 12:05:33;;;;;;;;;;;12.30;91.70;;;;;;5031717;28;19912;-85
2022/12/27 12:08:17;;;;;;;;;;;12.60;91.80;;;;;;5030777;28;20373;-86
2022/12/27 12:10:45;;;;;;;;;;;13.10;91.80;;;;;;5033112;28;19974;-84
2022/12/27 12:13:27;;;;;;;;;;;13.50;91.50;;;;;;5048659;28;19992;-85
2022/12/27 12:16:13;;;;;;;;;;;13.90;90.50;;;;;;5031845;28;19905;-84
2022/12/27 12:18:41;;;;;;;;;;;14.30;88.80;;;;;;5033520;28;19904;-84
2022/12/27 12:21:07;;;;;;;;;;;14.70;85.90;;;;;;5032841;28;19905;-84
2022/12/27 12:23:51;;;;;;;;;;;15.00;83.60;;;;;;5033276;28;19909;-85
2022/12/27 12:26:32;;;;;;;;;;;15.20;83.10;;;;;;5053127;28;19914;-85
2022/12/27 12:29:06;;;;;;;;;;;15.70;80.10;;;;;;5035421;28;20453;-85
2022/12/27 12:31:38;;;;;;;;;;;15.90;78.40;;;;;;5036502;28;19905;-85
2022/12/27 12:34:28;;;;;;;;;;;16.20;76.10;;;;;;5036096;28;20391;-85
2022/12/27 12:37:01;;;;;;;;;;;16.40;75.60;;;;;;5036565;28;19913;-86
2022/12/27 12:39:45;;;;;;;;;;;16.50;73.00;;;;;;5051635;28;19905;-85
2022/12/27 12:42:16;;;;;;;;;;;16.60;72.30;;;;;;5036121;28;20007;-84
2022/12/27 12:44:53;;;;;;;;;;;16.50;68.70;;;;;;5051762;28;19917;-84
2022/12/27 12:47:30;;;;;;;;;;;16.10;67.50;;;;;;5033742;28;19962;-84
2022/12/27 12:50:04;;;;;;;;;;;15.60;65.60;;;;;;5034381;28;20383;-84
2022/12/27 12:52:39;;;;;;;;;;;15.10;67.20;;;;;;5051693;28;19905;-85
2022/12/27 12:55:23;;;;;;;;;;;14.60;68.20;;;;;;5034528;28;19911;-84
2022/12/27 12:57:55;;;;;;;;;;;14.30;68.80;;;;;;5051278;28;20372;-85
2022/12/27 13:00:41;;;;;;;;;;;13.90;69.70;;;;;;5035683;28;20265;-84
2022/12/27 13:03:21;;;;;;;;;;;13.40;70.40;;;;;;5034870;28;19905;-84
2022/12/27 13:05:50;;;;;;;;;;;12.90;71.70;;;;;;5035577;28;19909;-84
2022/12/27 13:08:22;;;;;;;;;;;12.60;72.90;;;;;;5036731;28;19947;-84
2022/12/27 13:11:00;;;;;;;;;;;12.40;73.60;;;;;;5035916;28;19995;-85
2022/12/27 13:13:38;;;;;;;;;;;12.20;74.60;;;;;;5034871;28;20357;-85
2022/12/27 13:16:12;;;;;;;;;;;12.20;75.30;;;;;;5035872;28;20710;-85
2022/12/27 13:18:41;;;;;;;;;;;12.10;75.70;;;;;;5051133;28;19976;-84
2022/12/27 13:21:25;;;;;;;;;;;12.10;75.70;;;;;;5050782;28;19905;-85
2022/12/27 13:24:09;;;;;;;;;;;12.00;76.10;;;;;;5037006;28;20272;-85
2022/12/27 13:26:50;;;;;;;;;;;11.90;76.40;;;;;;5035817;28;19912;-85
2022/12/27 13:29:19;;;;;;;;;;;11.80;77.20;;;;;;5036135;28;19956;-86
2022/12/27 13:32:02;;;;;;;;;;;12.10;78.50;;;;;;5035972;28;20019;-86
2022/12/27 13:34:46;;;;;;;;;;;12.60;78.90;;;;;;5050864;28;19905;-86
2022/12/27 13:37:12;;;;;;;;;;;13.20;78.20;;;;;;5049958;28;19988;-86
2022/12/27 13:39:44;;;;;;;;;;;13.80;78.20;;;;;;5050247;28;20004;-85
2022/12/27 13:42:28;;;;;;;;;;;14.30;76.90;;;;;;5035138;28;19905;-85
2022/12/27 13:45:02;;;;;;;;;;;14.50;75.70;;;;;;5050297;28;19921;-85
2022/12/27 13:47:28;;;;;;;;;;;14.50;74.00;;;;;;5033871;28;20342;-85
2022/12/27 13:50:19;;;;;;;;;;;14.20;73.20;;;;;;5034790;28;19909;-84
2022/12/27 13:52:57;;;;;;;;;;;13.90;72.40;;;;;;5033964;28;19955;-85
2022/12/27 13:55:29;;;;;;;;;;;13.50;72.10;;;;;;5050563;28;20352;-84
2022/12/27 13:58:00;;;;;;;;;;;13.10;73.10;;;;;;5034558;28;19913;-85
2022/12/27 14:00:33;;;;;;;;;;;12.80;74.00;;;;;;5036857;28;19928;-85
2022/12/27 14:03:17;;;;;;;;;;;12.50;74.50;;;;;;5035379;28;20337;-85
2022/12/27 14:05:50;;;;;;;;;;;12.10;75.20;;;;;;5035118;28;19905;-85
2022/12/27 14:08:19;;;;;;;;;;;11.80;76.30;;;;;;5034056;28;19913;-85
2022/12/27 14:10:46;;;;;;;;;;;11.50;77.00;;;;;;5034747;28;19904;-85
2022/12/27 14:13:14;;;;;;;;;;;11.30;77.30;;;;;;5034688;28;20261;-85
2022/12/27 14:15:39;;;;;;;;;;;11.10;78.10;;;;;;5034336;28;20367;-85
2022/12/27 14:18:08;;;;;;;;;;;11.00;79.10;;;;;;5050498;28;19999;-84
2022/12/27 14:20:43;;;;;;;;;;;10.80;80.00;;;;;;5050041;28;19909;-84
2022/12/27 14:23:27;;;;;;;;;;;10.60;80.60;;;;;;5050570;28;19905;-85
2022/12/27 14:26:11;;;;;;;;;;;10.40;81.20;;;;;;5034902;28;19905;-85
2022/12/27 14:28:46;;;;;;;;;;;10.30;82.20;;;;;;5053203;28;19905;-85
2022/12/27 14:31:24;;;;;;;;;;;10.10;82.20;;;;;;5056278;28;19953;-86
2022/12/27 14:34:15;;;;;;;;;;;9.90;82.60;;;;;;5056799;28;19956;-85
2022/12/27 14:36:59;;;;;;;;;;;9.80;83.50;;;;;;5036480;28;20350;-85
2022/12/27 14:39:25;;;;;;;;;;;9.70;84.70;;;;;;5039165;28;19913;-85
2022/12/27 14:41:58;;;;;;;;;;;9.60;85.00;;;;;;5034490;28;20408;-84
2022/12/27 14:44:23;;;;;;;;;;;9.50;85.40;;;;;;5033152;28;19917;-84
2022/12/27 14:46:52;;;;;;;;;;;9.40;86.10;;;;;;5049659;28;20249;-85
2022/12/27 14:49:23;;;;;;;;;;;9.30;87.00;;;;;;5034223;28;20010;-84
2022/12/27 14:51:57;;;;;;;;;;;9.20;86.90;;;;;;5033703;28;19905;-85
2022/12/27 14:54:39;;;;;;;;;;;9.20;87.10;;;;;;5049652;28;19905;-85
2022/12/27 14:57:17;;;;;;;;;;;9.10;87.60;;;;;;5032392;28;19944;-84
2022/12/27 14:59:53;;;;;;;;;;;9.00;87.80;;;;;;5032713;28;19960;-85
2022/12/27 15:02:19;;;;;;;;;;;9.00;88.10;;;;;;5033815;28;19909;-84
2022/12/27 15:04:44;;;;;;;;;;;8.90;88.90;;;;;;5034461;28;19905;-85
2022/12/27 15:07:28;;;;;;;;;;;8.90;89.60;;;;;;5048815;28;19905;-84
2022/12/27 15:10:07;;;;;;;;;;;8.80;89.60;;;;;;5049314;28;20312;-85
2022/12/27 15:12:35;;;;;;;;;;;8.80;90.10;;;;;;5032688;28;19905;-84
2022/12/27 15:15:10;;;;;;;;;;;8.80;90.20;;;;;;5033903;28;19944;-84
2022/12/27 15:17:38;;;;;;;;;;;8.70;90.40;;;;;;5049451;28;20004;-84
2022/12/27 15:20:21;;;;;;;;;;;8.70;90.70;;;;;;5033427;28;19916;-84
2022/12/27 15:22:55;;;;;;;;;;;8.60;90.70;;;;;;5032665;28;19904;-85
2022/12/27 15:25:27;;;;;;;;;;;8.60;90.80;;;;;;5033901;28;19913;-84
2022/12/27 15:27:55;;;;;;;;;;;8.60;90.90;;;;;;5049171;28;19952;-84
2022/12/27 15:30:24;;;;;;;;;;;8.50;91.10;;;;;;5049121;28;19905;-84
2022/12/27 15:32:52;;;;;;;;;;;8.50;91.10;;;;;;5034084;28;19976;-84
2022/12/27 15:35:26;;;;;;;;;;;8.50;91.60;;;;;;5034523;28;19959;-84
2022/12/27 15:38:00;;;;;;;;;;;8.50;91.40;;;;;;5034426;28;19964;-84
2022/12/27 15:40:31;;;;;;;;;;;8.40;91.50;;;;;;5033951;28;20373;-85
2022/12/27 15:43:02;;;;;;;;;;;8.50;91.80;;;;;;5033415;28;19912;-84
2022/12/27 15:45:31;;;;;;;;;;;8.30;91.90;;;;;;5032154;28;20031;-84
2022/12/27 15:48:02;;;;;;;;;;;8.40;92.10;;;;;;5033486;28;20018;-83
2022/12/27 15:50:33;;;;;;;;;;;8.40;92.20;;;;;;5048599;28;19905;-84
2022/12/27 15:53:15;;;;;;;;;;;8.30;92.40;;;;;;5032400;28;20039;-85
2022/12/27 15:55:50;;;;;;;;;;;8.30;92.60;;;;;;5048694;28;19905;-85
2022/12/27 15:58:17;;;;;;;;;;;8.30;92.70;;;;;;5031640;28;20388;-83
2022/12/27 16:00:43;;;;;;;;;;;8.30;92.80;;;;;;5035078;28;19928;-85
2022/12/27 16:03:28;;;;;;;;;;;8.30;93.10;;;;;;5035913;28;19913;-84
2022/12/27 16:05:54;;;;;;;;;;;8.20;93.10;;;;;;5052962;28;19909;-84
2022/12/27 16:08:25;;;;;;;;;;;8.20;93.40;;;;;;5052543;28;19905;-84
2022/12/27 16:10:51;;;;;;;;;;;8.20;93.50;;;;;;5036909;28;19911;-84
2022/12/27 16:13:29;;;;;;;;;;;8.20;93.70;;;;;;5052505;28;19909;-84
2022/12/27 16:15:55;;;;;;;;;;;8.20;93.80;;;;;;5052882;28;20280;-85
2022/12/27 16:18:21;;;;;;;;;;;8.10;93.90;;;;;;5053654;28;19917;-85
2022/12/27 16:21:01;;;;;;;;;;;8.10;94.00;;;;;;5051913;28;19936;-85